sensor_id;sensor_type;location;lat;lon;timestamp;pressure;altitude;pressure_sealevel;temperature;humidity
83496;BME280;73431;40.794;43.836;2024-02-15T00:00:25;84154.28;;;7.37;61.50
83496;BME280;73431;40.794;43.836;2024-02-15T00:02:54;84137.44;;;7.38;59.78
83496;BME280;73431;40.794;43.836;2024-02-15T00:05:25;84130.59;;;7.41;60.44
83496;BME280;73431;40.794;43.836;2024-02-15T00:07:52;84130.00;;;7.46;59.71
83496;BME280;73431;40.794;43.836;2024-02-15T00:10:52;84134.38;;;7.49;61.58
83496;BME280;73431;40.794;43.836;2024-02-15T00:13:21;84124.78;;;7.46;60.09
83496;BME280;73431;40.794;43.836;2024-02-15T00:15:50;84117.94;;;7.49;60.14
83496;BME280;73431;40.794;43.836;2024-02-15T00:18:19;84120.81;;;7.51;59.84
83496;BME280;73431;40.794;43.836;2024-02-15T00:20:48;84108.44;;;7.51;59.42
83496;BME280;73431;40.794;43.836;2024-02-15T00:23:16;84032.56;;;7.00;59.60
83496;BME280;73431;40.794;43.836;2024-02-15T00:25:44;84097.13;;;7.45;59.17
83496;BME280;73431;40.794;43.836;2024-02-15T00:28:12;84091.91;;;7.45;60.16
83496;BME280;73431;40.794;43.836;2024-02-15T00:30:40;84072.00;;;7.38;59.88
83496;BME280;73431;40.794;43.836;2024-02-15T00:33:08;84077.09;;;7.33;60.56
83496;BME280;73431;40.794;43.836;2024-02-15T00:35:37;84076.25;;;7.27;60.08
83496;BME280;73431;40.794;43.836;2024-02-15T00:38:05;84078.41;;;7.28;59.45
83496;BME280;73431;40.794;43.836;2024-02-15T00:40:34;84068.38;;;7.36;59.50
83496;BME280;73431;40.794;43.836;2024-02-15T00:43:02;84073.16;;;7.47;59.48
83496;BME280;73431;40.794;43.836;2024-02-15T00:45:31;84078.78;;;7.54;59.54
83496;BME280;73431;40.794;43.836;2024-02-15T00:47:59;84075.31;;;7.48;59.24
83496;BME280;73431;40.794;43.836;2024-02-15T00:50:27;84086.19;;;7.56;59.43
83496;BME280;73431;40.794;43.836;2024-02-15T00:52:54;84074.38;;;7.60;58.92
83496;BME280;73431;40.794;43.836;2024-02-15T00:55:22;84074.53;;;7.66;59.51
83496;BME280;73431;40.794;43.836;2024-02-15T00:57:49;84077.16;;;7.57;59.06
83496;BME280;73431;40.794;43.836;2024-02-15T01:00:17;84082.13;;;7.55;59.38
83496;BME280;73431;40.794;43.836;2024-02-15T01:02:45;84079.53;;;7.45;59.38
83496;BME280;73431;40.794;43.836;2024-02-15T01:05:13;84084.81;;;7.36;59.93
83496;BME280;73431;40.794;43.836;2024-02-15T01:07:42;84079.44;;;7.31;59.51
83496;BME280;73431;40.794;43.836;2024-02-15T01:10:10;84068.72;;;7.20;59.88
83496;BME280;73431;40.794;43.836;2024-02-15T01:12:38;84082.94;;;7.19;60.32
83496;BME280;73431;40.794;43.836;2024-02-15T01:15:07;84071.06;;;7.09;60.30
83496;BME280;73431;40.794;43.836;2024-02-15T01:17:34;84085.88;;;7.12;61.96
83496;BME280;73431;40.794;43.836;2024-02-15T01:24:03;84092.69;;;7.18;60.16
83496;BME280;73431;40.794;43.836;2024-02-15T01:26:34;84097.31;;;7.32;60.13
83496;BME280;73431;40.794;43.836;2024-02-15T01:29:01;84100.22;;;7.34;60.21
83496;BME280;73431;40.794;43.836;2024-02-15T01:31:30;84107.50;;;7.30;60.34
83496;BME280;73431;40.794;43.836;2024-02-15T01:33:58;84109.41;;;7.30;61.09
83496;BME280;73431;40.794;43.836;2024-02-15T01:36:26;84084.56;;;7.16;60.34
83496;BME280;73431;40.794;43.836;2024-02-15T01:38:53;84101.25;;;7.28;60.25
83496;BME280;73431;40.794;43.836;2024-02-15T01:41:21;84099.78;;;7.36;60.02
83496;BME280;73431;40.794;43.836;2024-02-15T01:43:48;84105.19;;;7.23;61.00
83496;BME280;73431;40.794;43.836;2024-02-15T01:46:17;84105.19;;;7.23;60.34
83496;BME280;73431;40.794;43.836;2024-02-15T01:48:45;84102.28;;;7.30;60.41
83496;BME280;73431;40.794;43.836;2024-02-15T01:51:15;84098.03;;;7.33;60.73
83496;BME280;73431;40.794;43.836;2024-02-15T01:53:43;84101.84;;;7.23;60.98
83496;BME280;73431;40.794;43.836;2024-02-15T01:56:13;84057.34;;;6.72;61.30
83496;BME280;73431;40.794;43.836;2024-02-15T01:58:43;84085.91;;;6.93;61.53
83496;BME280;73431;40.794;43.836;2024-02-15T02:01:13;84098.69;;;7.10;61.50
83496;BME280;73431;40.794;43.836;2024-02-15T02:03:43;84097.09;;;7.03;61.20
83496;BME280;73431;40.794;43.836;2024-02-15T02:06:12;84069.22;;;6.91;60.88
83496;BME280;73431;40.794;43.836;2024-02-15T02:08:41;84099.13;;;6.99;60.99
83496;BME280;73431;40.794;43.836;2024-02-15T02:11:09;84099.69;;;7.12;61.73
83496;BME280;73431;40.794;43.836;2024-02-15T02:13:37;84100.56;;;7.09;62.46
83496;BME280;73431;40.794;43.836;2024-02-15T02:16:24;84089.25;;;7.03;61.96
83496;BME280;73431;40.794;43.836;2024-02-15T02:18:54;84102.16;;;7.16;61.14
83496;BME280;73431;40.794;43.836;2024-02-15T02:21:23;84105.16;;;7.32;60.59
83496;BME280;73431;40.794;43.836;2024-02-15T02:24:04;84107.75;;;7.41;61.41
83496;BME280;73431;40.794;43.836;2024-02-15T02:26:35;84118.06;;;7.45;60.26
83496;BME280;73431;40.794;43.836;2024-02-15T02:29:03;84113.41;;;7.49;59.93
83496;BME280;73431;40.794;43.836;2024-02-15T02:31:35;84118.94;;;7.51;60.24
83496;BME280;73431;40.794;43.836;2024-02-15T02:34:02;84120.38;;;7.52;59.70
83496;BME280;73431;40.794;43.836;2024-02-15T02:36:31;84121.81;;;7.53;60.11
83496;BME280;73431;40.794;43.836;2024-02-15T02:38:59;84126.06;;;7.51;59.81
83496;BME280;73431;40.794;43.836;2024-02-15T02:41:28;84123.16;;;7.49;59.75
83496;BME280;73431;40.794;43.836;2024-02-15T02:43:56;84123.88;;;7.49;59.83
83496;BME280;73431;40.794;43.836;2024-02-15T02:46:27;84120.25;;;7.47;60.04
83496;BME280;73431;40.794;43.836;2024-02-15T02:48:55;84121.16;;;7.34;61.06
83496;BME280;73431;40.794;43.836;2024-02-15T02:51:24;84115.81;;;7.20;61.11
83496;BME280;73431;40.794;43.836;2024-02-15T02:53:51;84119.47;;;7.13;61.46
83496;BME280;73431;40.794;43.836;2024-02-15T02:56:19;84116.13;;;7.13;61.78
83496;BME280;73431;40.794;43.836;2024-02-15T02:58:46;84127.31;;;7.13;61.71
83496;BME280;73431;40.794;43.836;2024-02-15T03:01:14;84118.88;;;7.09;62.38
83496;BME280;73431;40.794;43.836;2024-02-15T03:03:42;84118.59;;;7.07;61.73
83496;BME280;73431;40.794;43.836;2024-02-15T03:06:10;84112.22;;;7.08;63.74
83496;BME280;73431;40.794;43.836;2024-02-15T03:08:37;84109.59;;;6.99;63.71
83496;BME280;73431;40.794;43.836;2024-02-15T03:11:05;84122.13;;;6.86;62.48
83496;BME280;73431;40.794;43.836;2024-02-15T03:13:33;84120.94;;;6.87;62.78
83496;BME280;73431;40.794;43.836;2024-02-15T03:16:02;84131.13;;;6.85;63.08
83496;BME280;73431;40.794;43.836;2024-02-15T03:18:30;84131.56;;;6.83;62.77
83496;BME280;73431;40.794;43.836;2024-02-15T03:20:59;84137.94;;;6.91;63.46
83496;BME280;73431;40.794;43.836;2024-02-15T03:23:27;84136.94;;;6.89;62.58
83496;BME280;73431;40.794;43.836;2024-02-15T03:25:56;84153.19;;;6.93;62.72
83496;BME280;73431;40.794;43.836;2024-02-15T03:28:24;84142.03;;;7.02;62.00
83496;BME280;73431;40.794;43.836;2024-02-15T03:30:51;84155.81;;;7.11;61.80
83496;BME280;73431;40.794;43.836;2024-02-15T03:33:19;84163.06;;;7.16;63.70
83496;BME280;73431;40.794;43.836;2024-02-15T03:35:53;84155.50;;;7.18;62.72
83496;BME280;73431;40.794;43.836;2024-02-15T03:38:21;84165.97;;;7.09;62.41
83496;BME280;73431;40.794;43.836;2024-02-15T03:40:49;84154.94;;;7.05;62.48
83496;BME280;73431;40.794;43.836;2024-02-15T03:43:16;84167.31;;;7.05;62.67
83496;BME280;73431;40.794;43.836;2024-02-15T03:45:45;84174.56;;;7.01;62.67
83496;BME280;73431;40.794;43.836;2024-02-15T03:48:12;84161.06;;;6.84;62.82
83496;BME280;73431;40.794;43.836;2024-02-15T03:50:40;84163.53;;;6.78;65.32
83496;BME280;73431;40.794;43.836;2024-02-15T03:53:11;84171.50;;;6.75;64.12
83496;BME280;73431;40.794;43.836;2024-02-15T03:55:40;84165.69;;;6.71;64.38
83496;BME280;73431;40.794;43.836;2024-02-15T03:58:08;84160.91;;;6.69;65.36
83496;BME280;73431;40.794;43.836;2024-02-15T04:00:35;84090.00;;;6.13;63.70
83496;BME280;73431;40.794;43.836;2024-02-15T04:03:04;84166.16;;;6.69;64.09
83496;BME280;73431;40.794;43.836;2024-02-15T04:05:32;84165.41;;;6.69;64.28
83496;BME280;73431;40.794;43.836;2024-02-15T04:08:00;84166.28;;;6.66;63.89
83496;BME280;73431;40.794;43.836;2024-02-15T04:10:29;84154.97;;;6.60;64.07
83496;BME280;73431;40.794;43.836;2024-02-15T04:13:02;84142.91;;;6.53;63.98
83496;BME280;73431;40.794;43.836;2024-02-15T04:15:29;84160.19;;;6.60;65.24
83496;BME280;73431;40.794;43.836;2024-02-15T04:17:57;84165.25;;;6.54;67.06
83496;BME280;73431;40.794;43.836;2024-02-15T04:20:25;84164.97;;;6.52;65.63
83496;BME280;73431;40.794;43.836;2024-02-15T04:22:53;84165.97;;;6.46;67.07
83496;BME280;73431;40.794;43.836;2024-02-15T04:25:22;84178.16;;;6.49;64.83
83496;BME280;73431;40.794;43.836;2024-02-15T04:27:55;84174.53;;;6.46;65.22
83496;BME280;73431;40.794;43.836;2024-02-15T04:30:25;84178.91;;;6.49;64.99
83496;BME280;73431;40.794;43.836;2024-02-15T04:32:53;84179.34;;;6.57;68.04
83496;BME280;73431;40.794;43.836;2024-02-15T04:35:21;84163.66;;;6.48;66.10
83496;BME280;73431;40.794;43.836;2024-02-15T04:37:50;84160.00;;;6.54;64.80
83496;BME280;73431;40.794;43.836;2024-02-15T04:40:19;84181.25;;;6.65;64.47
83496;BME280;73431;40.794;43.836;2024-02-15T04:42:46;84191.56;;;6.69;65.42
83496;BME280;73431;40.794;43.836;2024-02-15T04:45:14;84197.94;;;6.77;65.34
83496;BME280;73431;40.794;43.836;2024-02-15T04:48:03;84205.50;;;6.84;66.07
83496;BME280;73431;40.794;43.836;2024-02-15T04:50:31;84211.75;;;6.86;65.10
83496;BME280;73431;40.794;43.836;2024-02-15T04:53:00;84214.53;;;6.92;64.95
83496;BME280;73431;40.794;43.836;2024-02-15T04:55:28;84210.59;;;6.87;64.25
83496;BME280;73431;40.794;43.836;2024-02-15T04:57:58;84201.47;;;6.92;64.51
83496;BME280;73431;40.794;43.836;2024-02-15T05:00:27;84201.59;;;6.88;64.81
83496;BME280;73431;40.794;43.836;2024-02-15T05:02:56;84213.66;;;6.95;67.22
83496;BME280;73431;40.794;43.836;2024-02-15T05:05:23;84211.91;;;6.92;65.64
83496;BME280;73431;40.794;43.836;2024-02-15T05:07:52;84210.00;;;6.92;65.66
83496;BME280;73431;40.794;43.836;2024-02-15T05:10:19;84204.22;;;6.88;65.46
83496;BME280;73431;40.794;43.836;2024-02-15T05:12:47;84226.59;;;6.99;64.87
83496;BME280;73431;40.794;43.836;2024-02-15T05:15:16;84203.75;;;6.90;64.74
83496;BME280;73431;40.794;43.836;2024-02-15T05:17:46;84235.31;;;7.14;64.52
83496;BME280;73431;40.794;43.836;2024-02-15T05:20:15;84152.63;;;6.53;64.72
83496;BME280;73431;40.794;43.836;2024-02-15T05:22:43;84244.63;;;7.24;64.03
83496;BME280;73431;40.794;43.836;2024-02-15T05:25:20;84235.03;;;7.21;66.86
83496;BME280;73431;40.794;43.836;2024-02-15T05:27:54;84236.47;;;7.22;64.93
83496;BME280;73431;40.794;43.836;2024-02-15T05:30:25;84240.13;;;7.33;65.13
83496;BME280;73431;40.794;43.836;2024-02-15T05:32:53;84239.69;;;7.26;65.41
83496;BME280;73431;40.794;43.836;2024-02-15T05:35:22;84242.44;;;7.22;65.34
83496;BME280;73431;40.794;43.836;2024-02-15T05:37:51;84251.31;;;7.25;64.53
83496;BME280;73431;40.794;43.836;2024-02-15T05:46:41;84245.06;;;7.13;65.77
83496;BME280;73431;40.794;43.836;2024-02-15T05:49:09;84246.34;;;7.09;67.76
83496;BME280;73431;40.794;43.836;2024-02-15T05:51:43;84239.81;;;7.04;67.25
83496;BME280;73431;40.794;43.836;2024-02-15T05:54:11;84238.66;;;6.96;67.39
83496;BME280;73431;40.794;43.836;2024-02-15T05:56:39;84238.94;;;7.07;66.51
83496;BME280;73431;40.794;43.836;2024-02-15T05:59:07;84235.88;;;7.00;67.83
83496;BME280;73431;40.794;43.836;2024-02-15T06:01:37;84225.41;;;7.09;67.18
83496;BME280;73431;40.794;43.836;2024-02-15T06:04:06;84222.66;;;7.12;67.69
83496;BME280;73431;40.794;43.836;2024-02-15T06:06:36;84221.06;;;7.24;66.37
83496;BME280;73431;40.794;43.836;2024-02-15T06:09:04;84226.44;;;7.29;67.12
83496;BME280;73431;40.794;43.836;2024-02-15T06:11:32;84229.06;;;7.38;66.66
83496;BME280;73431;40.794;43.836;2024-02-15T06:13:59;84217.41;;;7.49;66.20
83496;BME280;73431;40.794;43.836;2024-02-15T06:16:27;84220.88;;;7.55;66.41
83496;BME280;73431;40.794;43.836;2024-02-15T06:18:55;84231.38;;;7.55;66.77
83496;BME280;73431;40.794;43.836;2024-02-15T06:21:23;84231.22;;;7.49;66.74
83496;BME280;73431;40.794;43.836;2024-02-15T06:23:51;84231.94;;;7.40;67.38
83496;BME280;73431;40.794;43.836;2024-02-15T06:26:20;84237.63;;;7.48;65.38
83496;BME280;73431;40.794;43.836;2024-02-15T06:28:48;84250.25;;;7.68;65.33
83496;BME280;73431;40.794;43.836;2024-02-15T06:31:34;84233.03;;;7.85;64.94
83496;BME280;73431;40.794;43.836;2024-02-15T06:34:20;84233.00;;;8.03;65.32
83496;BME280;73431;40.794;43.836;2024-02-15T06:37:06;84242.91;;;7.99;64.37
83496;BME280;73431;40.794;43.836;2024-02-15T06:39:52;84259.16;;;8.21;63.85
83496;BME280;73431;40.794;43.836;2024-02-15T06:42:19;84266.25;;;8.39;63.44
83496;BME280;73431;40.794;43.836;2024-02-15T06:44:48;84245.47;;;8.17;63.37
83496;BME280;73431;40.794;43.836;2024-02-15T06:47:16;84275.03;;;8.36;63.57
83496;BME280;73431;40.794;43.836;2024-02-15T06:49:46;84271.06;;;8.40;63.35
83496;BME280;73431;40.794;43.836;2024-02-15T06:52:17;84263.34;;;8.37;63.55
83496;BME280;73431;40.794;43.836;2024-02-15T06:54:45;84264.44;;;8.54;63.42
83496;BME280;73431;40.794;43.836;2024-02-15T06:57:13;84261.91;;;8.69;62.85
83496;BME280;73431;40.794;43.836;2024-02-15T06:59:41;84258.31;;;8.90;62.58
83496;BME280;73431;40.794;43.836;2024-02-15T07:02:09;84268.75;;;8.99;61.84
83496;BME280;73431;40.794;43.836;2024-02-15T07:04:37;84268.13;;;9.04;61.85
83496;BME280;73431;40.794;43.836;2024-02-15T07:07:04;84273.59;;;8.91;61.61
83496;BME280;73431;40.794;43.836;2024-02-15T07:09:32;84278.25;;;8.96;61.44
83496;BME280;73431;40.794;43.836;2024-02-15T07:12:00;84279.41;;;8.95;61.34
83496;BME280;73431;40.794;43.836;2024-02-15T07:14:28;84268.28;;;9.00;62.37
83496;BME280;73431;40.794;43.836;2024-02-15T07:16:56;84259.09;;;9.05;61.86
83496;BME280;73431;40.794;43.836;2024-02-15T07:19:26;84259.88;;;8.96;61.46
83496;BME280;73431;40.794;43.836;2024-02-15T07:22:00;84277.81;;;9.22;61.60
83496;BME280;73431;40.794;43.836;2024-02-15T07:24:28;84278.75;;;9.33;60.59
83496;BME280;73431;40.794;43.836;2024-02-15T07:26:56;84274.56;;;9.27;61.03
83496;BME280;73431;40.794;43.836;2024-02-15T07:29:25;84271.19;;;9.26;61.29
83496;BME280;73431;40.794;43.836;2024-02-15T07:31:54;84277.00;;;9.30;61.11
83496;BME280;73431;40.794;43.836;2024-02-15T07:34:21;84272.59;;;9.36;60.48
83496;BME280;73431;40.794;43.836;2024-02-15T07:36:50;84270.38;;;9.44;60.34
83496;BME280;73431;40.794;43.836;2024-02-15T07:39:18;84272.91;;;9.53;61.20
83496;BME280;73431;40.794;43.836;2024-02-15T07:41:52;84289.50;;;9.59;59.55
83496;BME280;73431;40.794;43.836;2024-02-15T07:44:21;84289.66;;;9.79;59.65
83496;BME280;73431;40.794;43.836;2024-02-15T07:46:51;84293.59;;;10.13;59.04
83496;BME280;73431;40.794;43.836;2024-02-15T07:49:19;84283.84;;;10.43;57.81
83496;BME280;73431;40.794;43.836;2024-02-15T07:51:47;84286.34;;;10.67;57.69
83496;BME280;73431;40.794;43.836;2024-02-15T07:54:20;84281.78;;;10.82;57.61
83496;BME280;73431;40.794;43.836;2024-02-15T07:56:49;84272.38;;;10.75;57.53
83496;BME280;73431;40.794;43.836;2024-02-15T07:59:16;84286.13;;;10.99;57.67
83496;BME280;73431;40.794;43.836;2024-02-15T08:01:44;84268.06;;;11.07;57.97
83496;BME280;73431;40.794;43.836;2024-02-15T08:04:18;84274.13;;;11.13;58.02
83496;BME280;73431;40.794;43.836;2024-02-15T08:06:46;84276.47;;;11.11;57.34
83496;BME280;73431;40.794;43.836;2024-02-15T08:09:16;84276.94;;;11.30;57.34
83496;BME280;73431;40.794;43.836;2024-02-15T08:11:45;84275.72;;;11.45;57.12
83496;BME280;73431;40.794;43.836;2024-02-15T08:14:12;84272.69;;;11.52;57.19
83496;BME280;73431;40.794;43.836;2024-02-15T08:16:40;84273.16;;;11.71;56.58
83496;BME280;73431;40.794;43.836;2024-02-15T08:19:08;84268.03;;;11.82;55.68
83496;BME280;73431;40.794;43.836;2024-02-15T08:21:36;84261.78;;;11.80;53.45
83496;BME280;73431;40.794;43.836;2024-02-15T08:24:05;84255.94;;;11.70;54.99
83496;BME280;73431;40.794;43.836;2024-02-15T08:26:39;84258.59;;;11.55;55.16
83496;BME280;73431;40.794;43.836;2024-02-15T08:29:09;84256.34;;;11.68;56.12
83496;BME280;73431;40.794;43.836;2024-02-15T08:31:36;84255.84;;;11.85;55.64
83496;BME280;73431;40.794;43.836;2024-02-15T08:34:04;84259.06;;;11.94;56.09
83496;BME280;73431;40.794;43.836;2024-02-15T08:36:37;84253.00;;;11.88;55.77
83496;BME280;73431;40.794;43.836;2024-02-15T08:39:07;84242.19;;;11.66;55.39
83496;BME280;73431;40.794;43.836;2024-02-15T08:41:39;84246.03;;;11.45;55.35
83496;BME280;73431;40.794;43.836;2024-02-15T08:44:07;84244.72;;;11.20;55.00
83496;BME280;73431;40.794;43.836;2024-02-15T08:46:39;84243.19;;;10.93;56.61
83496;BME280;73431;40.794;43.836;2024-02-15T08:49:06;84223.19;;;10.67;57.49
83496;BME280;73431;40.794;43.836;2024-02-15T08:51:34;84236.59;;;10.83;57.09
83496;BME280;73431;40.794;43.836;2024-02-15T08:54:02;84235.41;;;10.84;56.00
83496;BME280;73431;40.794;43.836;2024-02-15T08:56:29;84231.16;;;10.72;55.83
83496;BME280;73431;40.794;43.836;2024-02-15T08:58:57;84227.97;;;10.83;57.27
83496;BME280;73431;40.794;43.836;2024-02-15T09:01:29;84221.66;;;10.95;57.42
83496;BME280;73431;40.794;43.836;2024-02-15T09:03:57;84232.75;;;10.99;55.17
83496;BME280;73431;40.794;43.836;2024-02-15T09:06:25;84229.38;;;10.98;56.76
83496;BME280;73431;40.794;43.836;2024-02-15T09:08:53;84227.66;;;10.95;56.68
83496;BME280;73431;40.794;43.836;2024-02-15T09:11:20;84228.25;;;10.85;57.71
83496;BME280;73431;40.794;43.836;2024-02-15T09:13:48;84225.25;;;10.77;58.07
83496;BME280;73431;40.794;43.836;2024-02-15T09:16:18;84228.28;;;10.70;59.23
83496;BME280;73431;40.794;43.836;2024-02-15T09:18:49;84162.31;;;10.09;58.86
83496;BME280;73431;40.794;43.836;2024-02-15T09:21:18;84211.59;;;10.58;59.29
83496;BME280;73431;40.794;43.836;2024-02-15T09:23:46;84218.69;;;10.52;60.18
83496;BME280;73431;40.794;43.836;2024-02-15T09:26:13;84213.34;;;10.47;61.02
83496;BME280;73431;40.794;43.836;2024-02-15T09:28:41;84209.09;;;10.49;59.59
83496;BME280;73431;40.794;43.836;2024-02-15T09:31:08;84214.47;;;10.75;59.42
83496;BME280;73431;40.794;43.836;2024-02-15T09:33:39;84208.78;;;10.97;60.22
83496;BME280;73431;40.794;43.836;2024-02-15T09:36:07;84205.63;;;11.13;58.79
83496;BME280;73431;40.794;43.836;2024-02-15T09:38:35;84209.06;;;11.19;57.30
83496;BME280;73431;40.794;43.836;2024-02-15T09:41:03;84176.41;;;11.11;56.20
83496;BME280;73431;40.794;43.836;2024-02-15T09:43:35;84199.78;;;11.44;57.71
83496;BME280;73431;40.794;43.836;2024-02-15T09:46:03;84193.91;;;11.54;56.68
83496;BME280;73431;40.794;43.836;2024-02-15T09:48:32;84190.84;;;11.61;55.54
83496;BME280;73431;40.794;43.836;2024-02-15T09:51:01;84189.22;;;11.64;55.78
83496;BME280;73431;40.794;43.836;2024-02-15T09:53:29;84185.28;;;11.74;56.05
83496;BME280;73431;40.794;43.836;2024-02-15T09:55:59;84180.72;;;11.75;54.77
83496;BME280;73431;40.794;43.836;2024-02-15T09:58:33;84177.69;;;11.82;55.77
83496;BME280;73431;40.794;43.836;2024-02-15T10:01:04;84173.34;;;12.04;54.45
83496;BME280;73431;40.794;43.836;2024-02-15T10:03:38;84137.00;;;11.88;54.08
83496;BME280;73431;40.794;43.836;2024-02-15T10:06:09;84152.72;;;12.03;54.84
83496;BME280;73431;40.794;43.836;2024-02-15T10:08:38;84144.44;;;12.15;54.85
83496;BME280;73431;40.794;43.836;2024-02-15T10:11:07;84139.38;;;12.12;54.32
83496;BME280;73431;40.794;43.836;2024-02-15T10:13:38;84151.41;;;12.18;53.29
83496;BME280;73431;40.794;43.836;2024-02-15T10:16:19;84143.88;;;12.37;53.12
83496;BME280;73431;40.794;43.836;2024-02-15T10:18:52;84137.00;;;12.51;54.59
83496;BME280;73431;40.794;43.836;2024-02-15T10:21:27;84140.59;;;12.90;53.22
83496;BME280;73431;40.794;43.836;2024-02-15T10:24:07;84149.97;;;13.34;51.34
83496;BME280;73431;40.794;43.836;2024-02-15T10:26:35;84143.31;;;13.49;52.79
83496;BME280;73431;40.794;43.836;2024-02-15T10:29:08;84139.94;;;13.43;50.04
83496;BME280;73431;40.794;43.836;2024-02-15T10:31:55;84137.97;;;13.38;47.94
83496;BME280;73431;40.794;43.836;2024-02-15T10:34:23;84131.00;;;13.35;51.94
83496;BME280;73431;40.794;43.836;2024-02-15T10:37:10;84131.22;;;13.26;51.17
83496;BME280;73431;40.794;43.836;2024-02-15T10:39:38;84129.97;;;13.16;51.93
83496;BME280;73431;40.794;43.836;2024-02-15T10:42:08;84131.13;;;13.09;52.45
83496;BME280;73431;40.794;43.836;2024-02-15T10:44:39;84128.03;;;13.11;52.73
83496;BME280;73431;40.794;43.836;2024-02-15T10:47:08;84122.78;;;13.27;52.65
83496;BME280;73431;40.794;43.836;2024-02-15T10:49:36;84115.56;;;13.22;50.98
83496;BME280;73431;40.794;43.836;2024-02-15T10:52:04;84139.00;;;13.04;50.19
83496;BME280;73431;40.794;43.836;2024-02-15T10:54:52;84136.47;;;12.84;51.34
83496;BME280;73431;40.794;43.836;2024-02-15T10:57:21;84138.03;;;12.59;52.00
83496;BME280;73431;40.794;43.836;2024-02-15T11:02:28;84139.16;;;12.52;52.13
83496;BME280;73431;40.794;43.836;2024-02-15T11:05:05;84141.47;;;12.39;51.49
83496;BME280;73431;40.794;43.836;2024-02-15T11:07:38;84140.72;;;12.33;53.03
83496;BME280;73431;40.794;43.836;2024-02-15T11:10:08;84139.19;;;12.21;52.04
83496;BME280;73431;40.794;43.836;2024-02-15T11:12:38;84142.06;;;12.23;52.69
83496;BME280;73431;40.794;43.836;2024-02-15T11:15:09;84149.56;;;12.30;52.83
83496;BME280;73431;40.794;43.836;2024-02-15T11:20:07;84153.16;;;12.27;52.01
83496;BME280;73431;40.794;43.836;2024-02-15T11:22:39;84150.88;;;12.14;53.15
83496;BME280;73431;40.794;43.836;2024-02-15T11:25:06;84164.59;;;11.93;53.17
83496;BME280;73431;40.794;43.836;2024-02-15T11:27:39;84112.38;;;11.45;53.79
83496;BME280;73431;40.794;43.836;2024-02-15T11:30:08;84151.59;;;11.63;53.92
83496;BME280;73431;40.794;43.836;2024-02-15T11:32:49;84133.66;;;11.42;54.96
83496;BME280;73431;40.794;43.836;2024-02-15T11:35:23;84144.25;;;11.47;54.65
83496;BME280;73431;40.794;43.836;2024-02-15T11:37:56;84149.56;;;11.53;55.03
83496;BME280;73431;40.794;43.836;2024-02-15T11:40:27;84150.16;;;11.42;55.70
83496;BME280;73431;40.794;43.836;2024-02-15T11:42:58;84157.75;;;11.35;56.11
83496;BME280;73431;40.794;43.836;2024-02-15T11:45:28;84156.31;;;11.34;55.87
83496;BME280;73431;40.794;43.836;2024-02-15T11:48:14;84145.03;;;11.33;55.53
83496;BME280;73431;40.794;43.836;2024-02-15T11:50:43;84148.97;;;11.43;54.90
83496;BME280;73431;40.794;43.836;2024-02-15T11:53:10;84152.25;;;11.58;54.93
83496;BME280;73431;40.794;43.836;2024-02-15T11:55:40;84153.44;;;11.57;55.13
83496;BME280;73431;40.794;43.836;2024-02-15T11:58:09;84157.06;;;11.60;54.28
83496;BME280;73431;40.794;43.836;2024-02-15T12:00:39;84148.44;;;11.59;54.60
83496;BME280;73431;40.794;43.836;2024-02-15T12:03:26;84153.84;;;11.50;55.21
83496;BME280;73431;40.794;43.836;2024-02-15T12:06:30;84169.41;;;11.48;54.89
83496;BME280;73431;40.794;43.836;2024-02-15T12:09:18;84162.22;;;11.49;55.55
83496;BME280;73431;40.794;43.836;2024-02-15T12:12:05;84160.00;;;11.42;54.96
83496;BME280;73431;40.794;43.836;2024-02-15T12:15:02;84166.25;;;11.44;56.15
83496;BME280;73431;40.794;43.836;2024-02-15T12:17:50;84169.06;;;11.61;55.35
83496;BME280;73431;40.794;43.836;2024-02-15T12:20:36;84171.78;;;11.46;54.93
83496;BME280;73431;40.794;43.836;2024-02-15T12:23:04;84174.44;;;11.06;54.32
83496;BME280;73431;40.794;43.836;2024-02-15T12:25:35;84165.28;;;10.81;55.13
83496;BME280;73431;40.794;43.836;2024-02-15T12:28:03;84172.88;;;10.79;55.59
83496;BME280;73431;40.794;43.836;2024-02-15T12:30:33;84167.03;;;10.90;55.43
83496;BME280;73431;40.794;43.836;2024-02-15T12:33:12;84161.72;;;11.04;56.64
83496;BME280;73431;40.794;43.836;2024-02-15T12:35:41;84159.34;;;11.06;55.86
83496;BME280;73431;40.794;43.836;2024-02-15T12:38:12;84166.19;;;10.98;55.89
83496;BME280;73431;40.794;43.836;2024-02-15T12:40:45;84176.00;;;10.98;56.18
83496;BME280;73431;40.794;43.836;2024-02-15T12:43:15;84172.38;;;10.95;56.02
83496;BME280;73431;40.794;43.836;2024-02-15T12:45:43;84157.06;;;10.94;56.61
83496;BME280;73431;40.794;43.836;2024-02-15T12:48:11;84177.31;;;11.08;56.45
83496;BME280;73431;40.794;43.836;2024-02-15T12:50:38;84178.78;;;11.09;56.38
83496;BME280;73431;40.794;43.836;2024-02-15T12:53:06;84177.13;;;11.11;57.14
83496;BME280;73431;40.794;43.836;2024-02-15T12:55:36;84157.06;;;10.94;55.97
83496;BME280;73431;40.794;43.836;2024-02-15T12:58:12;84183.13;;;11.12;56.62
83496;BME280;73431;40.794;43.836;2024-02-15T13:00:41;84181.81;;;11.22;55.31
83496;BME280;73431;40.794;43.836;2024-02-15T13:03:09;84182.34;;;11.26;55.26
83496;BME280;73431;40.794;43.836;2024-02-15T13:05:39;84183.13;;;11.32;54.78
83496;BME280;73431;40.794;43.836;2024-02-15T13:08:08;84187.59;;;11.26;54.80
83496;BME280;73431;40.794;43.836;2024-02-15T13:10:42;84185.03;;;11.32;54.36
83496;BME280;73431;40.794;43.836;2024-02-15T13:13:10;84181.31;;;11.44;54.37
83496;BME280;73431;40.794;43.836;2024-02-15T13:15:40;84186.19;;;11.51;53.58
83496;BME280;73431;40.794;43.836;2024-02-15T13:18:08;84186.72;;;11.55;53.02
83496;BME280;73431;40.794;43.836;2024-02-15T13:20:38;84189.81;;;11.53;53.85
83496;BME280;73431;40.794;43.836;2024-02-15T13:23:10;84189.88;;;11.59;52.69
83496;BME280;73431;40.794;43.836;2024-02-15T13:25:54;84189.38;;;11.55;52.46